Time;durP1;ratioP1;P1;durP2;ratioP2;P2;SDS_P1;SDS_P2;PMS_P1;PMS_P2;Temp;Humidity;BMP_temperature;BMP_pressure;BME280_temperature;BME280_humidity;BME280_pressure;Samples;Min_cycle;Max_cycle;Signal;HPM_P1;HPM_P2
2022/06/29 02:03:05;;;;;;;7.07;4.70;;;;;;;-145.18;100.00;46676.03;4990114;23;20091;-72
2022/06/29 02:05:30;;;;;;;9.03;4.70;;;;;;;-145.18;100.00;46683.84;4934074;29;20070;-72
2022/06/29 02:07:56;;;;;;;8.77;4.37;;;;;;;-145.18;100.00;46676.03;4933422;29;20091;-72
2022/06/29 02:10:22;;;;;;;9.23;4.80;;;;;;;-145.18;100.00;46681.88;4934393;29;20679;-72
2022/06/29 02:12:48;;;;;;;9.00;4.90;;;;;;;-145.18;100.00;46677.97;4933767;29;20027;-72
2022/06/29 02:15:13;;;;;;;11.60;4.80;;;;;;;-145.18;100.00;46681.88;4934465;29;20067;-72
2022/06/29 02:17:39;;;;;;;7.43;4.83;;;;;;;-145.18;100.00;46681.88;4933783;29;20110;-72
2022/06/29 02:20:05;;;;;;;7.10;4.97;;;;;;;-145.18;100.00;46679.94;4934278;29;20050;-72
2022/06/29 02:22:31;;;;;;;9.17;5.37;;;;;;;-145.18;100.00;46670.16;4933223;29;20083;-72
2022/06/29 02:24:56;;;;;;;9.33;5.43;;;;;;;-145.18;100.00;46677.97;4934229;29;20473;-72
2022/06/29 02:27:21;;;;;;;11.77;5.50;;;;;;;-145.18;100.00;46676.03;4933701;29;20114;-72
2022/06/29 02:29:47;;;;;;;7.63;5.20;;;;;;;-145.18;100.00;46666.25;4933919;29;20067;-72
2022/06/29 02:34:56;;;;;;;9.80;5.00;;;;;;;-145.18;100.00;46676.03;4934309;29;20113;-72
2022/06/29 02:37:22;;;;;;;9.57;5.60;;;;;;;-145.18;100.00;46674.06;4933717;29;20067;-72
2022/06/29 02:39:47;;;;;;;14.60;5.43;;;;;;;-145.18;100.00;46672.13;4933828;29;20035;-72
2022/06/29 02:42:13;;;;;;;9.93;5.80;;;;;;;-145.18;100.00;46677.97;4933479;29;20045;-72
2022/06/29 02:44:39;;;;;;;6.93;5.67;;;;;;;-145.18;100.00;46672.13;4933759;29;20027;-71
2022/06/29 02:47:05;;;;;;;11.03;5.80;;;;;;;-145.18;100.00;46676.03;4933365;29;20119;-72
2022/06/29 02:49:31;;;;;;;10.80;6.00;;;;;;;-145.18;100.00;46672.13;4934039;29;20024;-72
2022/06/29 02:51:57;;;;;;;7.67;5.47;;;;;;;-145.18;100.00;46676.03;4928877;29;20028;-72
2022/06/29 02:54:22;;;;;;;8.87;5.57;;;;;;;-145.18;100.00;46670.16;4932898;29;20035;-72
2022/06/29 02:56:48;;;;;;;11.07;5.80;;;;;;;-145.18;100.00;46672.13;4932798;29;20043;-72
2022/06/29 02:59:13;;;;;;;15.13;6.93;;;;;;;-145.18;100.00;46668.22;4933559;29;20118;-72
2022/06/29 03:01:38;;;;;;;7.73;5.93;;;;;;;-145.18;100.00;46670.16;4933067;29;20023;-72
2022/06/29 03:04:04;;;;;;;9.20;5.77;;;;;;;-145.18;100.00;46668.22;4933327;29;20127;-72
2022/06/29 03:06:29;;;;;;;10.37;6.43;;;;;;;-145.18;100.00;46668.22;4933214;29;20028;-72
2022/06/29 03:08:55;;;;;;;8.30;6.80;;;;;;;-145.18;100.00;46672.13;4931978;29;20035;-72
2022/06/29 03:11:20;;;;;;;9.67;6.30;;;;;;;-145.18;100.00;46666.25;4933617;29;20034;-72
2022/06/29 03:13:46;;;;;;;11.70;5.97;;;;;;;-145.18;100.00;46664.31;4931988;29;20084;-72
2022/06/29 03:16:11;;;;;;;14.10;6.57;;;;;;;-145.18;100.00;46664.31;4933363;29;20031;-72
2022/06/29 03:18:36;;;;;;;8.77;6.43;;;;;;;-145.18;100.00;46664.31;4932636;29;20114;-72
2022/06/29 03:21:02;;;;;;;8.30;6.00;;;;;;;-145.18;100.00;46668.22;4933350;29;20028;-72
2022/06/29 03:23:27;;;;;;;9.57;5.97;;;;;;;-145.18;100.00;46658.44;4931799;29;20118;-72
2022/06/29 03:25:52;;;;;;;7.20;5.93;;;;;;;-145.18;100.00;46666.25;4933082;29;20032;-72
2022/06/29 03:28:18;;;;;;;11.80;6.90;;;;;;;-145.18;100.00;46660.41;4933199;29;20555;-72
2022/06/29 03:30:43;;;;;;;8.30;6.07;;;;;;;-145.18;100.00;46656.50;4933058;29;20044;-72
2022/06/29 03:33:08;;;;;;;7.87;6.20;;;;;;;-145.18;100.00;46664.31;4932493;29;20123;-72
2022/06/29 03:35:34;;;;;;;7.37;6.60;;;;;;;-145.18;100.00;46666.25;4933118;29;20071;-72
2022/06/29 03:37:59;;;;;;;8.63;6.53;;;;;;;-145.18;100.00;46658.44;4932368;29;20028;-73
2022/06/29 03:40:25;;;;;;;7.67;6.03;;;;;;;-145.18;100.00;46662.34;4932287;29;20087;-72
2022/06/29 03:42:50;;;;;;;7.30;6.30;;;;;;;-145.18;100.00;46658.44;4932277;29;20772;-72
2022/06/29 03:45:16;;;;;;;7.60;6.77;;;;;;;-145.18;100.00;46662.34;4932975;29;20036;-72
2022/06/29 03:47:41;;;;;;;8.83;6.50;;;;;;;-145.18;100.00;46654.53;4932401;29;20039;-72
2022/06/29 03:50:08;;;;;;;10.97;6.20;;;;;;;-145.18;100.00;46664.31;4933014;29;20032;-73
2022/06/29 03:52:34;;;;;;;10.40;7.23;;;;;;;-145.18;100.00;46654.53;4932588;29;20040;-72
2022/06/29 03:55:00;;;;;;;12.93;7.87;;;;;;;-145.18;100.00;46660.41;4933325;29;20067;-72
2022/06/29 03:57:25;;;;;;;13.10;7.10;;;;;;;-145.18;100.00;46654.53;4932599;29;20064;-72
2022/06/29 03:59:50;;;;;;;8.97;7.30;;;;;;;-145.18;100.00;46660.41;4932649;29;20111;-72
2022/06/29 04:02:16;;;;;;;11.50;7.20;;;;;;;-145.18;100.00;46652.59;4932236;29;20059;-72
2022/06/29 04:04:41;;;;;;;8.10;7.07;;;;;;;-145.18;100.00;46648.69;4936601;29;20555;-73
2022/06/29 04:07:07;;;;;;;10.13;7.07;;;;;;;-145.18;100.00;46650.63;4936111;29;20031;-72
2022/06/29 04:09:32;;;;;;;12.90;8.50;;;;;;;-145.18;100.00;46652.59;4936706;29;20054;-72
2022/06/29 04:11:57;;;;;;;7.53;6.47;;;;;;;-145.18;100.00;46650.63;4936267;29;20027;-73
2022/06/29 04:14:26;;;;;;;11.10;7.10;;;;;;;-145.18;100.00;46644.78;4936510;29;20042;-73
2022/06/29 04:16:52;;;;;;;7.10;6.27;;;;;;;-145.18;100.00;46646.72;4936240;29;20436;-73
2022/06/29 04:19:18;;;;;;;10.07;6.80;;;;;;;-145.18;100.00;46648.69;4936381;29;20032;-73
2022/06/29 04:21:44;;;;;;;9.33;7.00;;;;;;;-145.18;100.00;46654.53;4936441;29;20036;-73
2022/06/29 04:24:10;;;;;;;7.43;6.63;;;;;;;-145.18;100.00;46646.72;4935769;29;20091;-72
2022/06/29 04:26:35;;;;;;;10.87;6.70;;;;;;;-145.18;100.00;46652.59;4936210;29;20079;-72
2022/06/29 04:29:01;;;;;;;8.40;6.63;;;;;;;-145.18;100.00;46652.59;4936051;29;20568;-72
2022/06/29 04:31:26;;;;;;;9.60;6.17;;;;;;;-145.18;100.00;46650.63;4936101;29;20038;-72
2022/06/29 04:33:51;;;;;;;8.90;6.73;;;;;;;-145.18;100.00;46654.53;4935624;29;20032;-72
2022/06/29 04:36:17;;;;;;;8.67;7.03;;;;;;;-145.18;100.00;46646.72;4936357;29;20032;-72
2022/06/29 04:38:42;;;;;;;11.03;7.87;;;;;;;-145.18;100.00;46650.63;4935565;29;20036;-72
2022/06/29 04:41:07;;;;;;;9.27;6.93;;;;;;;-145.18;100.00;46644.78;4919258;29;20031;-72
2022/06/29 04:43:33;;;;;;;8.20;6.50;;;;;;;-145.18;100.00;46648.69;4918876;29;20098;-72
2022/06/29 04:48:43;;;;;;;16.07;7.77;;;;;;;-145.18;100.00;46650.63;4935726;29;20589;-72
2022/06/29 04:51:09;;;;;;;15.63;8.20;;;;;;;-145.18;100.00;46654.53;4930005;29;20868;-73
2022/06/29 04:53:34;;;;;;;16.17;8.77;;;;;;;-145.18;100.00;46652.59;4925356;29;20156;-73
2022/06/29 04:56:00;;;;;;;18.83;8.97;;;;;;;-145.18;100.00;46654.53;4917753;29;20042;-73
2022/06/29 04:58:25;;;;;;;19.60;9.57;;;;;;;-145.18;100.00;46658.44;4935243;29;20061;-73
2022/06/29 05:00:51;;;;;;;28.30;11.53;;;;;;;-145.18;100.00;46656.50;4916115;29;20028;-72
2022/06/29 05:03:16;;;;;;;32.40;12.23;;;;;;;-145.18;100.00;46660.41;4916046;29;20056;-73
2022/06/29 05:05:42;;;;;;;39.10;14.20;;;;;;;-145.18;100.00;46660.41;4916249;29;20032;-73
2022/06/29 05:08:07;;;;;;;33.43;12.87;;;;;;;-145.18;100.00;46658.44;4915569;29;20036;-73
2022/06/29 05:10:33;;;;;;;32.13;12.67;;;;;;;-145.18;100.00;46660.41;4926697;29;20067;-72
2022/06/29 05:12:59;;;;;;;25.63;12.73;;;;;;;-145.18;100.00;46662.34;4899251;29;20028;-73
2022/06/29 05:15:25;;;;;;;23.17;11.03;;;;;;;-145.18;100.00;46656.50;4921728;29;20474;-74
2022/06/29 05:17:50;;;;;;;17.57;9.03;;;;;;;-145.18;100.00;46658.44;4934561;29;20035;-74
2022/06/29 05:20:16;;;;;;;13.77;8.00;;;;;;;-145.18;100.00;46662.34;4931628;29;20051;-74
2022/06/29 05:22:42;;;;;;;12.73;7.90;;;;;;;-145.18;100.00;46662.34;4931400;29;20036;-73
2022/06/29 05:25:07;;;;;;;13.63;7.77;;;;;;;-145.18;100.00;46662.34;4933191;29;20078;-75
2022/06/29 05:27:33;;;;;;;13.13;7.77;;;;;;;-145.18;100.00;46652.59;4933406;29;20040;-74
2022/06/29 05:29:59;;;;;;;12.27;7.80;;;;;;;-145.18;100.00;46664.31;4933903;29;20083;-73
2022/06/29 05:32:25;;;;;;;9.97;6.60;;;;;;;-145.18;100.00;46664.31;4933911;29;20046;-74
2022/06/29 05:34:50;;;;;;;11.33;7.53;;;;;;;-145.18;100.00;46666.25;4934096;29;20115;-73
2022/06/29 05:37:16;;;;;;;14.33;7.60;;;;;;;-145.18;100.00;46662.34;4934516;29;20481;-73
2022/06/29 05:39:42;;;;;;;13.87;7.50;;;;;;;-145.18;100.00;46666.25;4934553;29;20031;-74
2022/06/29 05:42:08;;;;;;;8.73;7.10;;;;;;;-145.18;100.00;46664.31;4934204;29;20032;-74
2022/06/29 05:44:34;;;;;;;11.33;8.10;;;;;;;-145.18;100.00;46660.41;4934341;29;20381;-74
2022/06/29 05:46:59;;;;;;;14.07;7.53;;;;;;;-145.18;100.00;46664.31;4934748;29;20051;-74
2022/06/29 05:49:24;;;;;;;11.40;7.60;;;;;;;-145.18;100.00;46666.25;4917174;29;20063;-74
2022/06/29 05:51:50;;;;;;;10.77;7.30;;;;;;;-145.18;100.00;46664.31;4934209;29;20035;-74
2022/06/29 05:54:15;;;;;;;16.57;8.50;;;;;;;-145.18;100.00;46662.34;4934122;29;20583;-74
2022/06/29 05:56:41;;;;;;;12.17;7.87;;;;;;;-145.18;100.00;46660.41;4933797;29;20046;-74
2022/06/29 05:59:06;;;;;;;10.80;7.83;;;;;;;-145.18;100.00;46666.25;4930864;29;20464;-75
2022/06/29 06:01:31;;;;;;;11.27;8.53;;;;;;;-145.18;100.00;46662.34;4925027;29;20507;-73
2022/06/29 06:03:57;;;;;;;10.90;7.50;;;;;;;-145.18;100.00;46664.31;4934973;29;20514;-73
2022/06/29 06:06:22;;;;;;;11.97;8.47;;;;;;;-145.18;100.00;46666.25;4953117;29;20488;-74
2022/06/29 06:08:48;;;;;;;16.77;9.73;;;;;;;-145.18;100.00;46666.25;4952631;28;20055;-74
2022/06/29 06:11:13;;;;;;;14.47;8.50;;;;;;;-145.18;100.00;46670.16;4953225;29;20562;-74
2022/06/29 06:13:38;;;;;;;13.67;9.53;;;;;;;-145.18;100.00;46668.22;4952592;29;20118;-74
2022/06/29 06:16:04;;;;;;;15.87;9.17;;;;;;;-145.18;100.00;46664.31;4929481;29;20038;-74
2022/06/29 06:18:29;;;;;;;15.57;9.40;;;;;;;-145.18;100.00;46668.22;4932391;29;20596;-74
2022/06/29 06:20:55;;;;;;;14.33;8.90;;;;;;;-145.18;100.00;46668.22;4933550;29;20536;-74
2022/06/29 06:23:20;;;;;;;24.93;11.37;;;;;;;-145.18;100.00;46668.22;4933759;29;20393;-75
2022/06/29 06:25:46;;;;;;;18.33;9.60;;;;;;;-145.18;100.00;46662.34;4933079;29;20139;-74
2022/06/29 06:28:12;;;;;;;15.63;9.67;;;;;;;-145.18;100.00;46668.22;4933346;29;20043;-74
2022/06/29 06:30:37;;;;;;;17.77;9.20;;;;;;;-145.18;100.00;46664.31;4933622;29;20020;-73
2022/06/29 06:33:03;;;;;;;23.70;11.17;;;;;;;-145.18;100.00;46664.31;4933140;29;20054;-73
2022/06/29 06:35:28;;;;;;;16.97;9.23;;;;;;;-145.18;100.00;46668.22;4933439;29;20396;-74
2022/06/29 06:37:53;;;;;;;15.30;9.37;;;;;;;-145.18;100.00;46664.31;4934016;29;20484;-73
2022/06/29 06:43:03;;;;;;;12.97;7.77;;;;;;;-145.18;100.00;46676.03;4933554;29;20062;-73
2022/06/29 06:45:29;;;;;;;11.90;7.80;;;;;;;-145.18;100.00;46666.25;4939003;29;20067;-74
2022/06/29 06:47:54;;;;;;;8.43;7.30;;;;;;;-145.18;100.00;46670.16;4951613;28;20389;-74
2022/06/29 06:50:20;;;;;;;13.63;7.40;;;;;;;-145.18;100.00;46672.13;4952472;29;20062;-74
2022/06/29 06:52:45;;;;;;;11.07;6.27;;;;;;;-145.18;100.00;46664.31;4951815;28;20126;-74
2022/06/29 06:55:13;;;;;;;7.00;6.40;;;;;;;-145.18;100.00;46662.34;4952460;29;20039;-74
2022/06/29 06:57:38;;;;;;;9.67;6.87;;;;;;;-145.18;100.00;46650.63;4951812;29;20071;-74
2022/06/29 07:00:05;;;;;;;15.57;7.60;;;;;;;-145.18;100.00;46648.69;4952009;29;20552;-73
2022/06/29 07:02:30;;;;;;;8.43;6.57;;;;;;;-145.18;100.00;46660.41;4951734;28;20123;-74
2022/06/29 07:04:56;;;;;;;15.13;7.77;;;;;;;-145.18;100.00;46668.22;4951974;28;20039;-74
2022/06/29 07:07:21;;;;;;;12.80;6.97;;;;;;;-145.18;100.00;46648.69;4951965;29;20539;-73
2022/06/29 07:09:47;;;;;;;8.57;6.80;;;;;;;-145.18;100.00;46636.94;4951682;29;20059;-73
2022/06/29 07:12:12;;;;;;;9.60;6.80;;;;;;;-145.18;100.00;46568.59;4952256;29;20121;-73
2022/06/29 07:14:37;;;;;;;9.03;6.63;;;;;;;-145.18;100.00;46617.41;4951651;29;20511;-73
2022/06/29 07:17:03;;;;;;;11.20;6.40;;;;;;;-145.18;100.00;46619.38;4938038;29;20235;-73
2022/06/29 07:19:28;;;;;;;9.70;6.57;;;;;;;-145.18;100.00;46572.50;4932701;29;20433;-74
2022/06/29 07:21:54;;;;;;;8.00;6.20;;;;;;;-145.18;100.00;46543.19;4932380;29;20111;-73
2022/06/29 07:24:20;;;;;;;9.33;7.00;;;;;;;-145.18;100.00;46543.19;4932697;29;20546;-74
2022/06/29 07:26:45;;;;;;;8.33;6.30;;;;;;;-145.18;100.00;46535.38;4915252;29;20043;-73
2022/06/29 07:29:11;;;;;;;10.60;6.80;;;;;;;-145.18;100.00;46533.44;4932725;29;20040;-73
2022/06/29 07:31:36;;;;;;;9.80;6.40;;;;;;;-145.18;100.00;46531.47;4914982;29;20120;-73
2022/06/29 07:34:02;;;;;;;11.10;7.10;;;;;;;-145.18;100.00;46529.53;4930864;29;20095;-74
2022/06/29 07:36:29;;;;;;;8.63;6.27;;;;;;;-145.18;100.00;46533.44;4936745;28;20047;-73
2022/06/29 07:38:54;;;;;;;8.87;6.13;;;;;;;-145.18;100.00;46529.53;4936928;29;20031;-73
2022/06/29 07:41:19;;;;;;;7.43;5.17;;;;;;;-145.18;100.00;46529.53;4922790;29;20035;-73
2022/06/29 07:43:45;;;;;;;7.57;5.33;;;;;;;-145.18;100.00;46529.53;4954888;29;20543;-73
2022/06/29 07:46:10;;;;;;;8.97;4.70;;;;;;;-145.18;100.00;46531.47;4955259;29;20074;-74
2022/06/29 07:48:36;;;;;;;6.30;4.40;;;;;;;-145.18;100.00;46529.53;4955117;29;20035;-73
2022/06/29 07:51:02;;;;;;;7.37;5.20;;;;;;;-145.18;100.00;46533.44;4955680;29;20110;-73
2022/06/29 07:53:28;;;;;;;7.87;4.93;;;;;;;-145.18;100.00;46527.56;4954968;29;20035;-74
2022/06/29 07:55:53;;;;;;;18.03;6.70;;;;;;;-145.18;100.00;46529.53;4954846;29;20042;-73
2022/06/29 07:58:19;;;;;;;9.37;4.17;;;;;;;-145.18;100.00;46535.38;4937678;29;20110;-73
2022/06/29 08:00:47;;;;;;;5.23;3.47;;;;;;;-145.18;100.00;46535.38;4939710;29;20032;-73
2022/06/29 08:03:13;;;;;;;4.73;3.63;;;;;;;-145.18;100.00;46519.75;4935428;29;20060;-74
2022/06/29 08:05:39;;;;;;;7.93;4.30;;;;;;;-145.18;100.00;46521.72;4936109;29;20043;-73
2022/06/29 08:08:06;;;;;;;6.07;3.93;;;;;;;-145.18;100.00;46529.53;4935611;29;20042;-73
2022/06/29 08:10:32;;;;;;;7.23;3.90;;;;;;;-145.18;100.00;46533.44;4935745;29;20050;-73
2022/06/29 08:12:58;;;;;;;9.63;3.87;;;;;;;-145.18;100.00;46525.63;4935161;29;20031;-73
2022/06/29 08:15:24;;;;;;;5.67;3.13;;;;;;;-145.18;100.00;46531.47;4928867;29;20030;-73
2022/06/29 08:17:51;;;;;;;7.73;3.30;;;;;;;-145.18;100.00;46531.47;4935434;29;20035;-73
2022/06/29 08:20:16;;;;;;;8.73;3.37;;;;;;;-145.18;100.00;46535.38;4935584;29;20038;-73
2022/06/29 08:22:42;;;;;;;7.73;4.07;;;;;;;-145.18;100.00;46533.44;4935253;29;20035;-74
2022/06/29 08:25:08;;;;;;;5.73;3.70;;;;;;;-145.18;100.00;46531.47;4935648;29;20027;-73
2022/06/29 08:27:33;;;;;;;6.90;3.30;;;;;;;-145.18;100.00;46539.28;4918653;29;20048;-73
2022/06/29 08:30:00;;;;;;;6.67;3.00;;;;;;;-145.18;100.00;46543.19;4918299;29;20042;-73
2022/06/29 08:32:26;;;;;;;7.00;3.10;;;;;;;-145.18;100.00;46539.28;4935599;29;20106;-74
2022/06/29 08:34:51;;;;;;;4.57;2.80;;;;;;;-145.18;100.00;46533.44;4935039;29;20738;-73
2022/06/29 08:37:18;;;;;;;7.10;2.90;;;;;;;-145.18;100.00;46527.56;4918327;29;20043;-73
2022/06/29 08:39:43;;;;;;;8.47;2.80;;;;;;;-145.18;100.00;46539.28;4934927;29;20032;-73
2022/06/29 08:42:09;;;;;;;10.53;4.20;;;;;;;-145.18;100.00;46592.03;4935499;29;20044;-73
2022/06/29 08:44:36;;;;;;;5.97;2.20;;;;;;;-145.18;100.00;46670.16;4934610;29;20082;-73
2022/06/29 08:47:06;;;;;;;2.93;2.07;;;;;;;-145.18;100.00;46996.38;4931597;29;20493;-73
2022/06/29 08:49:33;;;;;;;7.67;2.67;;;;;;;-145.18;100.00;47064.75;4923316;29;20032;-73
2022/06/29 08:51:59;;;;;;;11.27;2.43;;;;;;;-145.18;100.00;46810.81;4926436;29;20032;-73
2022/06/29 08:54:28;;;;;;;5.83;2.17;;;;;;;-145.18;100.00;46793.22;4927094;29;20036;-73
2022/06/29 08:56:56;;;;;;;6.03;2.63;;;;;;;-145.18;100.00;47133.13;4918134;29;20476;-73
2022/06/29 08:59:23;;;;;;;4.97;2.27;;;;;;;-145.18;100.00;47051.09;4898988;29;20446;-73
2022/06/29 09:01:51;;;;;;;5.90;2.23;;;;;;;-145.18;100.00;46976.84;4915758;29;20075;-72
2022/06/29 09:04:18;;;;;;;3.75;2.08;;;;;;;-145.18;100.00;47137.03;4915459;29;20437;-73
2022/06/29 09:06:44;;;;;;;4.97;1.90;;;;;;;-145.18;100.00;47019.81;4915738;29;20052;-73
2022/06/29 09:09:09;;;;;;;6.80;1.73;;;;;;;-145.18;100.00;47035.44;4915755;29;20043;-72
2022/06/29 09:11:42;;;;;;;3.93;1.57;;;;;;;-145.18;100.00;47021.78;4915821;29;20035;-73
2022/06/29 09:14:09;;;;;;;3.55;2.10;;;;;;;-145.18;100.00;47013.97;4898302;29;20438;-73
2022/06/29 09:16:59;;;;;;;3.72;2.00;;;;;;;-145.18;100.00;47039.34;4925923;29;20066;-73
2022/06/29 09:19:46;;;;;;;3.65;1.80;;;;;;;-145.18;100.00;47019.81;4925781;29;20048;-73
2022/06/29 09:22:13;;;;;;;4.88;1.52;;;;;;;-145.18;100.00;47043.28;4934226;29;20698;-73
2022/06/29 09:24:39;;;;;;;6.38;1.90;;;;;;;-145.18;100.00;47029.59;4934013;29;20070;-72
2022/06/29 09:27:07;;;;;;;4.28;1.77;;;;;;;-145.18;100.00;47006.16;4934928;29;20079;-73
2022/06/29 09:29:44;;;;;;;4.72;1.60;;;;;;;-145.18;100.00;46998.34;4934309;29;20074;-73
2022/06/29 09:32:15;;;;;;;7.03;1.83;;;;;;;-145.18;100.00;46994.44;4918471;29;20096;-73
2022/06/29 09:34:42;;;;;;;7.18;2.00;;;;;;;-145.18;100.00;46996.38;4914931;29;20032;-73
2022/06/29 09:37:19;;;;;;;2.63;1.63;;;;;;;-145.18;100.00;47012.00;4915700;29;20028;-73
2022/06/29 09:39:50;;;;;;;4.13;1.60;;;;;;;-145.18;100.00;46990.53;4898182;29;20163;-73
2022/06/29 09:42:17;;;;;;;13.02;2.40;;;;;;;-145.18;100.00;46980.75;4920153;29;20473;-73
2022/06/29 09:44:44;;;;;;;4.45;1.58;;;;;;;-145.18;100.00;47004.19;4914958;29;20040;-73
2022/06/29 09:47:16;;;;;;;3.97;1.67;;;;;;;-145.18;100.00;46969.03;4914908;29;20574;-73
2022/06/29 09:49:43;;;;;;;8.27;1.85;;;;;;;-145.18;100.00;46971.00;4914903;29;20032;-73
2022/06/29 09:52:10;;;;;;;4.72;2.13;;;;;;;-145.18;100.00;46957.31;4915327;29;20043;-73
2022/06/29 09:54:54;;;;;;;2.67;1.50;;;;;;;-145.18;100.00;46971.00;4914702;29;20445;-74
2022/06/29 09:57:21;;;;;;;5.32;1.58;;;;;;;-145.18;100.00;46963.19;4898327;29;20378;-73
2022/06/29 10:02:43;;;;;;;2.80;1.95;;;;;;;-145.18;100.00;46951.44;4918066;29;20051;-73
2022/06/29 10:05:17;;;;;;;3.80;1.40;;;;;;;-145.18;100.00;46939.72;4915977;29;20040;-73
2022/06/29 10:07:47;;;;;;;2.47;1.30;;;;;;;-145.18;100.00;46943.63;4917238;29;20088;-73
2022/06/29 10:10:15;;;;;;;4.18;1.70;;;;;;;-145.18;100.00;46945.59;4931489;29;20039;-73
2022/06/29 10:15:40;;;;;;;2.58;1.80;;;;;;;-145.18;100.00;46949.50;4930471;29;20516;-73
2022/06/29 10:18:47;;;;;;;2.53;1.40;;;;;;;-145.18;100.00;46935.81;4914614;29;20032;-73
2022/06/29 10:21:22;;;;;;;4.05;1.30;;;;;;;-145.18;100.00;46929.97;4901122;29;20111;-73
2022/06/29 10:23:52;;;;;;;6.65;1.60;;;;;;;-145.18;100.00;46935.81;4914348;29;20166;-72
2022/06/29 10:26:35;;;;;;;1.92;1.10;;;;;;;-145.18;100.00;46918.25;4914457;29;20115;-72
2022/06/29 10:29:06;;;;;;;4.20;1.35;;;;;;;-145.18;100.00;46904.56;4916931;29;20040;-72
2022/06/29 10:32:08;;;;;;;3.28;1.67;;;;;;;-145.18;100.00;46922.16;4914331;29;20531;-72
2022/06/29 10:34:34;;;;;;;6.85;1.60;;;;;;;-145.18;100.00;46953.41;4914099;29;20402;-72
2022/06/29 10:37:04;;;;;;;5.78;1.92;;;;;;;-145.18;100.00;46941.69;4914473;29;20043;-72
2022/06/29 10:39:44;;;;;;;9.65;1.77;;;;;;;-145.18;100.00;46949.50;4913952;29;20040;-72
2022/06/29 10:45:32;;;;;;;2.60;1.45;;;;;;;-145.18;100.00;46965.13;4914062;29;20190;-72
2022/06/29 10:47:58;;;;;;;4.47;1.58;;;;;;;-145.18;100.00;46937.78;4897155;29;20071;-72
2022/06/29 11:48:23;;;;;;;5.70;1.23;;;;;;;-145.18;89.20;46855.72;4931501;29;20430;-72
2022/06/29 11:50:56;;;;;;;4.32;1.50;;;;;;;-145.18;95.62;46842.06;4931531;29;20054;-71
2022/06/29 11:53:44;;;;;;;8.45;1.60;;;;;;;-145.18;83.77;46847.91;4930161;29;20488;-72
2022/06/29 11:56:27;;;;;;;1.75;1.00;;;;;;;-145.18;83.00;46845.97;4932607;29;20162;-72
2022/06/29 11:58:56;;;;;;;5.70;1.20;;;;;;;-145.18;84.42;46844.00;4932345;29;20187;-72
2022/06/29 12:01:25;;;;;;;4.97;1.00;;;;;;;-145.18;77.02;46851.81;4932319;29;20493;-71
2022/06/29 12:03:52;;;;;;;4.70;1.23;;;;;;;-145.18;83.70;46875.28;4931962;29;20370;-72
2022/06/29 12:06:19;;;;;;;5.10;1.10;;;;;;;-145.18;91.96;46857.69;4932315;29;20047;-72
2022/06/29 12:08:45;;;;;;;2.17;1.20;;;;;;;-145.18;84.92;46838.16;4932128;29;20032;-72
2022/06/29 12:11:11;;;;;;;4.18;1.27;;;;;;;-145.18;91.04;46859.63;4932503;29;20032;-72
2022/06/29 12:13:37;;;;;;;4.05;1.30;;;;;;;-145.18;80.77;46828.38;4931884;29;20035;-72
2022/06/29 12:16:02;;;;;;;4.47;1.30;;;;;;;-145.18;78.08;46859.63;4931787;29;20028;-72
2022/06/29 12:18:28;;;;;;;4.90;2.08;;;;;;;-145.18;83.28;46883.09;4931937;29;20088;-72
2022/06/29 12:20:53;;;;;;;4.88;1.30;;;;;;;-145.18;90.39;46863.53;4932228;29;20386;-72
2022/06/29 12:23:19;;;;;;;3.22;1.02;;;;;;;-145.18;86.18;46853.78;4932835;29;20034;-72
2022/06/29 12:25:45;;;;;;;3.22;1.20;;;;;;;-145.18;90.92;46830.34;4935179;29;20088;-72
2022/06/29 12:28:11;;;;;;;3.47;1.27;;;;;;;-145.18;89.07;46842.06;4932575;29;20111;-71
2022/06/29 12:30:38;;;;;;;5.68;1.17;;;;;;;-145.18;88.41;46845.97;4926596;29;20042;-72
2022/06/29 12:33:04;;;;;;;4.72;1.50;;;;;;;-145.18;87.10;46857.69;4933129;29;20159;-72
2022/06/29 12:35:30;;;;;;;3.67;1.40;;;;;;;-145.18;84.34;46873.31;4935308;29;20370;-71
2022/06/29 12:37:58;;;;;;;3.30;1.10;;;;;;;-145.18;90.30;46875.28;4935528;29;20043;-72
2022/06/29 12:40:25;;;;;;;5.72;1.20;;;;;;;-145.18;87.81;46875.28;4935436;29;20031;-72
2022/06/29 12:42:51;;;;;;;3.35;1.20;;;;;;;-145.18;91.62;46881.13;4935618;29;20040;-72
2022/06/29 12:45:17;;;;;;;3.75;1.90;;;;;;;-145.18;88.47;46896.75;4933619;29;20147;-72
2022/06/29 12:47:42;;;;;;;6.95;1.38;;;;;;;-145.18;93.82;46879.19;4926114;29;20550;-72
2022/06/29 12:50:07;;;;;;;1.73;1.40;;;;;;;-145.18;86.65;46869.41;4915491;29;20497;-71
2022/06/29 12:52:33;;;;;;;3.00;1.45;;;;;;;-145.18;85.83;46855.72;4914327;29;20030;-72
2022/06/29 12:54:58;;;;;;;3.60;1.60;;;;;;;-145.18;85.54;46861.59;4914568;29;20159;-71
2022/06/29 12:57:24;;;;;;;4.20;1.30;;;;;;;-145.18;89.48;46873.31;4916459;29;20036;-72
2022/06/29 12:59:49;;;;;;;8.98;1.52;;;;;;;-145.18;87.04;46873.31;4916029;29;20092;-71
2022/06/29 13:02:15;;;;;;;2.38;1.40;;;;;;;-145.18;90.39;46853.78;4916337;29;20032;-71
2022/06/29 13:04:41;;;;;;;1.52;1.05;;;;;;;-145.18;85.39;46845.97;4915718;29;20123;-71
2022/06/29 13:07:06;;;;;;;1.95;1.08;;;;;;;-145.18;84.14;46836.19;4916228;29;20555;-72
2022/06/29 13:09:31;;;;;;;2.40;1.52;;;;;;;-145.18;78.99;46845.97;4916064;29;20024;-71
2022/06/29 13:11:57;;;;;;;5.85;1.50;;;;;;;-145.18;79.59;46896.75;4916213;29;20024;-71
2022/06/29 13:14:23;;;;;;;5.53;1.48;;;;;;;-145.18;89.50;46908.47;4916125;29;20453;-72
2022/06/29 13:16:48;;;;;;;4.85;1.48;;;;;;;-145.18;82.96;46865.50;4928324;29;20032;-72
2022/06/29 13:19:14;;;;;;;1.58;1.20;;;;;;;-145.18;82.38;46845.97;4934749;29;20554;-72
2022/06/29 13:21:40;;;;;;;4.50;1.50;;;;;;;-145.18;79.50;46855.72;4934982;29;20133;-72
2022/06/29 13:24:07;;;;;;;4.35;1.20;;;;;;;-145.18;77.15;46861.59;4917641;29;20048;-71
2022/06/29 13:26:33;;;;;;;2.80;1.23;;;;;;;-145.18;77.82;46859.63;4934586;29;20424;-71
2022/06/29 13:28:58;;;;;;;2.30;1.30;;;;;;;-145.18;79.42;46853.78;4934759;29;20031;-71
2022/06/29 13:31:24;;;;;;;4.95;1.20;;;;;;;-145.18;76.78;46867.44;4934724;29;20365;-71
2022/06/29 13:33:49;;;;;;;4.60;1.90;;;;;;;-145.18;76.44;46845.97;4925576;29;20068;-71
2022/06/29 13:36:15;;;;;;;3.25;1.30;;;;;;;-145.18;79.83;46865.50;4916916;29;20032;-71
2022/06/29 13:38:41;;;;;;;5.55;1.70;;;;;;;-145.18;84.35;46892.84;4915517;29;20051;-72
2022/06/29 13:41:07;;;;;;;6.05;2.10;;;;;;;-145.18;99.10;46926.06;4915151;29;20036;-71
2022/06/29 13:43:32;;;;;;;6.82;2.10;;;;;;;-145.18;100.00;46926.06;4915685;29;20115;-71
2022/06/29 13:45:57;;;;;;;2.60;1.55;;;;;;;-145.18;100.00;46939.72;4915246;29;20053;-71
2022/06/29 13:48:23;;;;;;;9.52;2.42;;;;;;;-145.18;100.00;46914.34;4915571;29;20047;-71
2022/06/29 13:50:49;;;;;;;9.48;1.98;;;;;;;-145.18;100.00;46883.09;4941204;29;20488;-71
2022/06/29 13:53:14;;;;;;;5.50;1.65;;;;;;;-145.18;100.00;46888.94;4946306;29;20059;-71
2022/06/29 13:55:40;;;;;;;3.90;1.60;;;;;;;-145.18;99.08;46890.91;4933871;29;20035;-71
2022/06/29 13:58:06;;;;;;;4.65;1.70;;;;;;;-145.18;98.26;46871.38;4926156;29;20703;-71
2022/06/29 14:00:34;;;;;;;6.60;1.70;;;;;;;-145.18;100.00;46883.09;4914616;29;20064;-71
2022/06/29 14:03:00;;;;;;;4.72;1.58;;;;;;;-145.18;96.13;46861.59;4915477;29;20059;-71
2022/06/29 14:05:25;;;;;;;5.10;1.95;;;;;;;-145.18;96.89;46879.19;4938974;29;20059;-71
2022/06/29 14:07:51;;;;;;;6.15;2.10;;;;;;;-145.18;100.00;46879.19;4953245;29;20057;-71
2022/06/29 14:10:16;;;;;;;5.22;1.70;;;;;;;-145.18;98.23;46879.19;4952620;29;20066;-71
2022/06/29 14:12:44;;;;;;;4.43;1.55;;;;;;;-145.18;99.12;46885.03;4953355;29;20084;-71
2022/06/29 14:15:09;;;;;;;7.28;1.70;;;;;;;-145.18;100.00;46881.13;4952952;29;20117;-71
2022/06/29 14:17:35;;;;;;;4.20;1.63;;;;;;;-145.18;99.05;46888.94;4934933;29;20094;-71
2022/06/29 14:20:00;;;;;;;6.80;1.92;;;;;;;-145.18;91.67;46871.38;4917450;29;20039;-70
2022/06/29 14:22:26;;;;;;;4.55;1.52;;;;;;;-145.18;92.29;46883.09;4917141;29;20094;-71
2022/06/29 14:24:51;;;;;;;8.05;1.60;;;;;;;-145.18;98.48;46855.72;4913758;29;20032;-71